createdAt,value
2022-08-28T00:03:03.168Z,20.42
2022-08-28T00:08:10.770Z,20.42
2022-08-28T00:13:19.220Z,20.43
2022-08-28T00:18:23.443Z,20.35
2022-08-28T00:23:36.949Z,20.33
2022-08-28T00:28:48.517Z,20.34
2022-08-28T00:33:52.004Z,20.27
2022-08-28T00:38:55.649Z,20.20
2022-08-28T00:44:11.135Z,20.21
2022-08-28T00:49:16.892Z,20.20
2022-08-28T00:54:21.309Z,20.30
2022-08-28T00:59:27.832Z,20.39
2022-08-28T01:04:33.606Z,20.34
2022-08-28T01:09:44.274Z,20.30
2022-08-28T01:14:53.713Z,20.25
2022-08-28T01:20:01.053Z,20.21
2022-08-28T01:25:12.717Z,20.19
2022-08-28T01:30:20.258Z,20.12
2022-08-28T01:35:27.221Z,20.01
2022-08-28T01:40:37.489Z,19.91
2022-08-28T01:45:42.724Z,19.86
2022-08-28T01:50:46.667Z,19.81
2022-08-28T01:55:52.656Z,19.73
2022-08-28T02:00:56.146Z,19.66
2022-08-28T02:05:59.634Z,19.61
2022-08-28T02:11:05.251Z,19.71
2022-08-28T02:16:11.093Z,19.74
2022-08-28T02:21:15.374Z,19.77
2022-08-28T02:26:21.224Z,19.84
2022-08-28T02:31:24.725Z,19.83
2022-08-28T02:36:28.542Z,19.87
2022-08-28T02:41:33.467Z,19.88
2022-08-28T02:46:36.966Z,19.97
2022-08-28T02:51:40.823Z,19.96
2022-08-28T02:56:46.039Z,20.01
2022-08-28T03:01:50.057Z,20.18
2022-08-28T03:06:53.516Z,20.22
2022-08-28T03:11:58.530Z,20.35
2022-08-28T03:17:02.262Z,20.46
2022-08-28T03:22:05.924Z,20.58
2022-08-28T03:27:10.836Z,20.82
2022-08-28T03:32:14.277Z,20.90
2022-08-28T03:37:17.781Z,21.07
2022-08-28T03:42:23.208Z,21.23
2022-08-28T03:47:28.409Z,21.35
2022-08-28T03:52:33.281Z,21.38
2022-08-28T03:57:38.138Z,21.57
2022-08-28T04:02:42.292Z,21.57
2022-08-28T04:07:45.747Z,21.69
2022-08-28T04:12:50.894Z,21.84
2022-08-28T04:17:54.450Z,21.91
2022-08-28T04:22:58.036Z,22.06
2022-08-28T04:28:05.861Z,21.89
2022-08-28T04:33:10.747Z,21.98
2022-08-28T04:38:14.284Z,22.30
2022-08-28T04:43:19.238Z,22.53
2022-08-28T04:48:22.721Z,22.92
2022-08-28T04:53:26.263Z,23.46
2022-08-28T04:58:34.307Z,24.16
2022-08-28T05:03:38.135Z,24.13
2022-08-28T05:08:41.666Z,24.14
2022-08-28T05:13:47.007Z,24.35
2022-08-28T05:18:50.998Z,24.56
2022-08-28T05:23:56.603Z,24.79
2022-08-28T05:29:02.707Z,25.16
2022-08-28T05:34:07.251Z,25.75
2022-08-28T05:39:12.416Z,26.51
2022-08-28T05:44:18.661Z,27.13
2022-08-28T05:49:22.368Z,28.59
2022-08-28T05:54:25.527Z,34.21
2022-08-28T05:59:31.546Z,37.64
2022-08-28T06:04:36.472Z,38.01
2022-08-28T06:09:40.330Z,37.90
2022-08-28T06:14:45.191Z,37.34
2022-08-28T06:19:49.030Z,37.97
2022-08-28T06:24:52.647Z,40.26
2022-08-28T06:29:58.838Z,42.07
2022-08-28T06:35:02.570Z,44.56
2022-08-28T06:40:07.877Z,45.07
2022-08-28T06:45:13.990Z,47.28
2022-08-28T06:50:17.693Z,47.49
2022-08-28T06:55:21.158Z,47.87
2022-08-28T07:00:26.216Z,48.52
2022-08-28T07:05:30.622Z,50.20
2022-08-28T07:10:34.212Z,47.35
2022-08-28T07:15:41.861Z,45.84
2022-08-28T07:20:46.912Z,46.23
2022-08-28T07:25:50.642Z,48.04
2022-08-28T07:31:00.681Z,49.05
2022-08-28T07:36:04.541Z,48.18
2022-08-28T07:41:15.862Z,47.82
2022-08-28T07:46:21.051Z,47.26
2022-08-28T07:51:24.628Z,46.67
2022-08-28T07:56:30.075Z,48.45
2022-08-28T08:01:39.739Z,48.54
2022-08-28T08:06:45.044Z,49.04
2022-08-28T08:11:49.511Z,46.85
2022-08-28T08:16:54.872Z,44.97
2022-08-28T08:21:59.350Z,45.68
2022-08-28T08:27:03.866Z,45.40
2022-08-28T08:32:12.335Z,45.00
2022-08-28T08:37:16.700Z,43.97
2022-08-28T08:42:25.976Z,41.61
2022-08-28T08:47:37.849Z,40.32
2022-08-28T08:52:59.779Z,40.32
2022-08-28T08:58:07.765Z,38.51
2022-08-28T09:03:17.382Z,37.22
2022-08-28T09:08:32.228Z,35.84
2022-08-28T09:13:49.779Z,35.51
2022-08-28T09:18:57.040Z,35.04
2022-08-28T09:24:10.933Z,34.70
2022-08-28T09:29:20.801Z,34.79
2022-08-28T09:34:30.121Z,34.42
2022-08-28T09:39:35.802Z,34.42
2022-08-28T09:44:56.461Z,34.44
2022-08-28T09:50:21.581Z,33.68
2022-08-28T09:55:35.299Z,34.04
2022-08-28T10:00:42.822Z,33.71
2022-08-28T10:05:58.829Z,33.95
2022-08-28T10:11:12.675Z,33.87
2022-08-28T10:16:24.822Z,33.51
2022-08-28T10:21:37.457Z,33.16
2022-08-28T10:26:50.093Z,32.42
2022-08-28T10:31:59.644Z,32.75
2022-08-28T10:37:17.473Z,32.71
2022-08-28T10:42:35.717Z,32.59
2022-08-28T10:47:44.283Z,32.50
2022-08-28T10:52:55.524Z,32.18
2022-08-28T10:58:05.654Z,32.30
2022-08-28T11:03:36.927Z,32.18
2022-08-28T11:08:42.104Z,32.40
2022-08-28T11:13:56.164Z,32.24
2022-08-28T11:19:31.902Z,32.41
2022-08-28T11:24:47.414Z,32.29
2022-08-28T11:30:31.904Z,32.52
2022-08-28T11:35:48.690Z,32.08
2022-08-28T11:40:58.235Z,31.99
2022-08-28T11:46:26.263Z,32.26
2022-08-28T11:51:56.042Z,32.21
2022-08-28T11:57:09.504Z,32.55
2022-08-28T12:02:51.156Z,32.71
2022-08-28T12:07:54.668Z,32.98
2022-08-28T12:13:02.346Z,33.12
2022-08-28T12:18:14.808Z,32.98
2022-08-28T12:23:41.493Z,33.02
2022-08-28T12:28:49.958Z,33.36
2022-08-28T12:34:00.625Z,33.74
2022-08-28T12:39:07.803Z,33.16
2022-08-28T12:44:15.719Z,32.76
2022-08-28T12:49:35.161Z,32.63
2022-08-28T12:54:39.089Z,32.52
2022-08-28T12:59:45.978Z,32.46
2022-08-28T13:04:55.659Z,32.12
2022-08-28T13:10:03.567Z,31.70
2022-08-28T13:15:11.422Z,31.71
2022-08-28T13:20:28.978Z,31.60
2022-08-28T13:25:35.003Z,31.52
2022-08-28T13:30:40.462Z,31.39
2022-08-28T13:35:44.425Z,31.10
2022-08-28T13:40:58.001Z,30.73
2022-08-28T13:46:04.808Z,30.50
2022-08-28T13:51:14.216Z,30.36
2022-08-28T13:56:24.324Z,30.11
2022-08-28T14:01:49.391Z,29.94
2022-08-28T14:06:54.107Z,29.79
2022-08-28T14:11:58.008Z,29.83
2022-08-28T14:17:03.916Z,29.78
2022-08-28T14:22:07.911Z,29.69
2022-08-28T14:27:11.818Z,29.60
2022-08-28T14:32:16.802Z,29.65
2022-08-28T14:37:21.742Z,29.61
2022-08-28T14:42:26.722Z,29.58
2022-08-28T14:47:33.003Z,29.57
2022-08-28T14:52:37.556Z,29.51
2022-08-28T14:57:42.113Z,29.49
2022-08-28T15:02:47.254Z,29.49
2022-08-28T15:07:51.255Z,29.38
2022-08-28T15:12:54.991Z,29.18
2022-08-28T15:18:00.898Z,29.11
2022-08-28T15:23:04.695Z,29.05
2022-08-28T15:28:08.836Z,28.89
2022-08-28T15:33:14.347Z,28.88
2022-08-28T15:38:18.379Z,28.75
2022-08-28T15:43:22.006Z,28.69
2022-08-28T15:48:30.532Z,28.65
2022-08-28T15:53:35.018Z,28.57
2022-08-28T15:58:39.131Z,28.45
2022-08-28T16:03:44.176Z,28.33
2022-08-28T16:08:49.379Z,28.19
2022-08-28T16:13:54.133Z,28.03
2022-08-28T16:18:59.607Z,27.92
2022-08-28T16:24:03.225Z,27.79
2022-08-28T16:29:07.704Z,27.67
2022-08-28T16:34:12.595Z,27.49
2022-08-28T16:39:16.687Z,27.35
2022-08-28T16:44:20.874Z,27.17
2022-08-28T16:49:26.763Z,27.12
2022-08-28T16:54:30.559Z,26.97
2022-08-28T16:59:34.802Z,26.81
2022-08-28T17:04:45.310Z,26.69
2022-08-28T17:09:49.474Z,26.52
2022-08-28T17:14:52.970Z,26.23
2022-08-28T17:19:57.948Z,26.00
2022-08-28T17:25:03.578Z,25.83
2022-08-28T17:30:09.239Z,25.72
2022-08-28T17:35:15.307Z,25.60
2022-08-28T17:40:19.874Z,25.43
2022-08-28T17:45:25.824Z,25.16
2022-08-28T17:50:32.700Z,25.21
2022-08-28T17:55:37.408Z,25.24
2022-08-28T18:00:41.935Z,25.35
2022-08-28T18:05:47.918Z,25.49
2022-08-28T18:10:51.795Z,25.53
2022-08-28T18:15:56.944Z,25.56
2022-08-28T18:21:02.785Z,25.62
2022-08-28T18:26:07.732Z,25.67
2022-08-28T18:31:11.640Z,25.69
2022-08-28T18:36:17.258Z,25.70
2022-08-28T18:41:34.555Z,25.66
2022-08-28T18:46:45.920Z,25.63
2022-08-28T18:51:50.838Z,25.68
2022-08-28T18:56:59.600Z,25.59
2022-08-28T19:02:08.906Z,25.56
2022-08-28T19:07:14.739Z,25.57
2022-08-28T19:12:18.373Z,25.50
2022-08-28T19:17:22.157Z,25.56
2022-08-28T19:22:29.981Z,25.55
2022-08-28T19:27:34.285Z,25.50
2022-08-28T19:32:39.853Z,25.51
2022-08-28T19:37:47.321Z,25.50
2022-08-28T19:42:51.432Z,25.40
2022-08-28T19:47:56.326Z,25.39
2022-08-28T19:53:01.498Z,25.34
2022-08-28T19:58:06.989Z,25.37
2022-08-28T20:03:11.257Z,25.36
2022-08-28T20:08:17.878Z,25.38
2022-08-28T20:13:22.090Z,25.35
2022-08-28T20:18:26.311Z,25.31
2022-08-28T20:23:31.107Z,25.25
2022-08-28T20:28:35.605Z,25.22
2022-08-28T20:33:39.759Z,25.21
2022-08-28T20:38:45.269Z,25.13
2022-08-28T20:43:49.838Z,25.08
2022-08-28T20:48:53.524Z,24.96
2022-08-28T20:53:58.315Z,24.90
2022-08-28T20:59:02.641Z,24.80
2022-08-28T21:04:07.959Z,24.70
2022-08-28T21:09:12.839Z,24.63
2022-08-28T21:14:16.922Z,24.51
2022-08-28T21:19:20.382Z,24.49
2022-08-28T21:24:26.450Z,24.53
2022-08-28T21:29:30.914Z,24.49
2022-08-28T21:34:34.375Z,24.43
2022-08-28T21:39:39.834Z,24.37
2022-08-28T21:44:46.108Z,24.19
2022-08-28T21:49:56.985Z,23.95
2022-08-28T21:55:04.926Z,23.73
2022-08-28T22:00:14.100Z,23.55
2022-08-28T22:05:18.173Z,23.35
2022-08-28T22:10:23.205Z,23.20
2022-08-28T22:15:26.976Z,23.04
2022-08-28T22:20:30.804Z,22.92
2022-08-28T22:25:40.602Z,22.79
2022-08-28T22:30:44.918Z,22.65
2022-08-28T22:35:50.508Z,22.57
2022-08-28T22:40:55.357Z,22.50
2022-08-28T22:45:59.491Z,22.39
2022-08-28T22:51:06.554Z,22.39
2022-08-28T22:56:12.691Z,22.37
2022-08-28T23:01:19.343Z,22.26
2022-08-28T23:06:22.811Z,22.15
2022-08-28T23:11:28.565Z,21.96
2022-08-28T23:16:35.221Z,21.81
2022-08-28T23:21:40.829Z,21.71
2022-08-28T23:26:49.261Z,21.70
2022-08-28T23:31:54.595Z,21.54
2022-08-28T23:36:58.031Z,21.39
2022-08-28T23:42:03.774Z,21.34
2022-08-28T23:47:07.394Z,21.20
2022-08-28T23:52:11.021Z,21.09
2022-08-28T23:57:17.347Z,20.98
